createdAt,value
2019-05-21T00:01:04.095Z,100575.48
2019-05-21T00:03:35.729Z,100580.13
2019-05-21T00:06:08.415Z,100575.48
2019-05-21T00:08:39.669Z,100576.19
2019-05-21T00:11:10.919Z,100578.77
2019-05-21T00:13:42.003Z,100578.95
2019-05-21T00:16:13.201Z,100577.55
2019-05-21T00:18:44.291Z,100570.50
2019-05-21T00:21:15.363Z,100577.06
2019-05-21T00:23:46.742Z,100570.50
2019-05-21T00:26:18.300Z,100566.19
2019-05-21T00:29:26.209Z,100577.94
2019-05-21T00:32:35.151Z,100572.91
2019-05-21T00:35:47.563Z,100572.58
2019-05-21T00:38:55.679Z,100576.56
2019-05-21T00:42:03.488Z,100585.55
2019-05-21T00:44:38.141Z,100579.69
2019-05-21T00:47:09.674Z,100579.14
2019-05-21T00:49:40.615Z,100567.77
2019-05-21T00:52:12.272Z,100575.34
2019-05-21T00:54:43.623Z,100574.31
2019-05-21T00:57:14.773Z,100568.45
2019-05-21T00:59:46.635Z,100574.65
2019-05-21T01:02:17.992Z,100576.88
2019-05-21T01:05:00.114Z,100579.47
2019-05-21T01:07:23.044Z,100577.70
2019-05-21T01:09:54.601Z,100572.52
2019-05-21T01:12:25.953Z,100576.48
2019-05-21T01:14:57.408Z,100571.79
2019-05-21T01:17:28.866Z,100566.42
2019-05-21T01:20:00.621Z,100563.48
2019-05-21T01:22:31.769Z,100571.42
2019-05-21T01:25:03.225Z,100568.13
2019-05-21T01:27:34.270Z,100567.95
2019-05-21T01:30:06.546Z,100565.89
2019-05-21T01:32:37.697Z,100565.94
2019-05-21T01:35:17.020Z,100562.67
2019-05-21T01:37:42.131Z,100568.06
2019-05-21T01:40:13.490Z,100568.08
2019-05-21T01:42:44.838Z,100569.13
2019-05-21T01:45:16.294Z,100563.26
2019-05-21T01:47:47.644Z,100567.94
2019-05-21T01:50:18.823Z,100567.59
2019-05-21T01:52:50.362Z,100563.78
2019-05-21T01:55:21.812Z,100556.88
2019-05-21T01:57:53.055Z,100556.74
2019-05-21T02:00:24.615Z,100560.89
2019-05-21T02:02:56.175Z,100561.59
2019-05-21T02:05:32.914Z,100562.97
2019-05-21T02:08:01.019Z,100558.82
2019-05-21T02:10:32.782Z,100557.61
2019-05-21T02:13:03.926Z,100560.89
2019-05-21T02:15:35.593Z,100560.52
2019-05-21T02:18:07.356Z,100566.42
2019-05-21T02:20:39.221Z,100559.69
2019-05-21T02:23:10.569Z,100557.80
2019-05-21T02:25:42.165Z,100567.48
2019-05-21T02:28:13.621Z,100567.99
2019-05-21T02:30:44.729Z,100570.06
2019-05-21T02:33:16.389Z,100571.27
2019-05-21T02:35:54.099Z,100567.97
2019-05-21T02:38:21.545Z,100567.81
2019-05-21T02:40:53.819Z,100566.94
2019-05-21T02:43:25.480Z,100569.53
2019-05-21T02:45:56.620Z,100563.31
2019-05-21T02:48:27.973Z,100573.00
2019-05-21T02:50:59.427Z,100579.19
2019-05-21T02:53:34.281Z,100574.36
2019-05-21T02:56:03.787Z,100576.96
2019-05-21T02:58:35.015Z,100575.41
2019-05-21T03:01:08.220Z,100582.65
2019-05-21T03:03:39.805Z,100588.52
2019-05-21T03:06:14.308Z,100586.95
2019-05-21T03:08:44.825Z,100586.59
2019-05-21T03:11:16.397Z,100581.89
2019-05-21T03:13:47.839Z,100582.44
2019-05-21T03:16:19.201Z,100588.47
2019-05-21T03:18:50.646Z,100587.23
2019-05-21T03:21:21.796Z,100584.65
2019-05-21T03:23:53.453Z,100587.23
2019-05-21T03:26:24.707Z,100585.99
2019-05-21T03:28:56.367Z,100582.89
2019-05-21T03:31:27.932Z,100588.06
2019-05-21T03:33:59.372Z,100593.59
2019-05-21T03:36:33.926Z,100589.75
2019-05-21T03:39:03.929Z,100592.52
2019-05-21T03:41:35.375Z,100591.47
2019-05-21T03:44:06.625Z,100599.75
2019-05-21T03:46:38.096Z,100595.23
2019-05-21T03:49:09.228Z,100597.67
2019-05-21T03:51:40.275Z,100602.33
2019-05-21T03:54:11.525Z,100601.31
2019-05-21T03:56:42.670Z,100602.47
2019-05-21T03:59:14.017Z,100603.15
2019-05-21T04:01:45.480Z,100602.44
2019-05-21T04:04:16.623Z,100604.16
2019-05-21T04:06:51.941Z,100601.88
2019-05-21T04:09:20.961Z,100600.66
2019-05-21T04:11:53.398Z,100605.47
2019-05-21T04:14:32.693Z,100607.20
2019-05-21T04:17:08.538Z,100609.86
2019-05-21T04:19:41.526Z,100610.70
2019-05-21T04:22:15.947Z,100620.26
2019-05-21T04:24:46.895Z,100625.62
2019-05-21T04:27:17.968Z,100627.77
2019-05-21T04:29:49.596Z,100626.87
2019-05-21T04:32:21.053Z,100628.27
2019-05-21T04:34:52.508Z,100620.33
2019-05-21T04:37:23.960Z,100628.27
2019-05-21T04:39:55.518Z,100620.95
2019-05-21T04:42:27.077Z,100612.78
2019-05-21T04:44:58.636Z,100607.23
2019-05-21T04:47:30.306Z,100608.92
2019-05-21T04:50:01.463Z,100613.47
2019-05-21T04:52:32.890Z,100609.27
2019-05-21T04:55:05.762Z,100607.18
2019-05-21T04:57:37.499Z,100608.17
2019-05-21T05:00:09.611Z,100612.31
2019-05-21T05:02:40.965Z,100609.34
2019-05-21T05:05:12.524Z,100605.87
2019-05-21T05:07:44.175Z,100600.04
2019-05-21T05:10:15.840Z,100600.59
2019-05-21T05:12:47.389Z,100604.49
2019-05-21T05:15:19.048Z,100596.69
2019-05-21T05:17:50.521Z,100595.70
2019-05-21T05:20:21.892Z,100592.95
2019-05-21T05:22:53.079Z,100600.52
2019-05-21T05:25:24.458Z,100596.00
2019-05-21T05:27:55.713Z,100598.89
2019-05-21T05:30:26.954Z,100597.75
2019-05-21T05:32:58.362Z,100591.44
2019-05-21T05:35:29.446Z,100588.42
2019-05-21T05:38:00.494Z,100598.30
2019-05-21T05:40:31.735Z,100600.91
2019-05-21T05:43:03.193Z,100596.41
2019-05-21T05:45:34.832Z,100599.96
2019-05-21T05:48:06.304Z,100594.55
2019-05-21T05:50:42.258Z,100599.58
2019-05-21T05:53:13.611Z,100592.87
2019-05-21T05:55:45.067Z,100593.34
2019-05-21T05:58:16.313Z,100599.42
2019-05-21T06:00:47.677Z,100598.67
2019-05-21T06:03:18.838Z,100593.28
2019-05-21T06:05:50.147Z,100591.78
2019-05-21T06:08:21.723Z,100589.30
2019-05-21T06:10:53.178Z,100590.22
2019-05-21T06:13:24.219Z,100587.00
2019-05-21T06:15:55.877Z,100591.04
2019-05-21T06:18:27.333Z,100588.06
2019-05-21T06:20:58.993Z,100583.46
2019-05-21T06:23:30.653Z,100581.76
2019-05-21T06:26:02.213Z,100583.36
2019-05-21T06:28:33.355Z,100584.33
2019-05-21T06:31:04.815Z,100586.69
2019-05-21T06:33:37.185Z,100592.38
2019-05-21T06:36:08.852Z,100594.08
2019-05-21T06:38:40.399Z,100598.14
2019-05-21T06:41:11.870Z,100585.98
2019-05-21T06:43:43.109Z,100587.51
2019-05-21T06:46:14.573Z,100597.05
2019-05-21T06:48:45.818Z,100581.14
2019-05-21T06:51:18.421Z,100586.19
2019-05-21T06:53:50.068Z,100596.67
2019-05-21T06:56:21.513Z,100593.28
2019-05-21T06:58:52.762Z,100597.95
2019-05-21T07:01:28.522Z,100585.36
2019-05-21T07:03:57.515Z,100591.15
2019-05-21T07:06:29.687Z,100584.58
2019-05-21T07:09:01.144Z,100586.77
2019-05-21T07:11:34.239Z,100591.67
2019-05-21T07:14:06.001Z,100576.81
2019-05-21T07:16:37.341Z,100587.95
2019-05-21T07:19:08.606Z,100585.44
2019-05-21T07:21:40.402Z,100583.16
2019-05-21T07:24:11.343Z,100573.09
2019-05-21T07:26:42.525Z,100583.02
2019-05-21T07:29:14.478Z,100578.08
2019-05-21T07:31:45.777Z,100573.13
2019-05-21T07:34:16.913Z,100573.34
2019-05-21T07:36:48.468Z,100574.85
2019-05-21T07:39:19.372Z,100570.16
2019-05-21T07:41:50.765Z,100568.56
2019-05-21T07:44:21.811Z,100570.34
2019-05-21T07:46:53.473Z,100569.15
2019-05-21T07:49:24.829Z,100571.84
2019-05-21T07:51:55.867Z,100569.58
2019-05-21T07:54:28.166Z,100571.03
2019-05-21T07:57:00.415Z,100566.09
2019-05-21T07:59:31.766Z,100563.88
2019-05-21T08:02:03.324Z,100569.06
2019-05-21T08:04:34.835Z,100566.24
2019-05-21T08:07:06.138Z,100559.56
2019-05-21T08:09:37.376Z,100562.03
2019-05-21T08:12:34.561Z,100564.06
2019-05-21T08:14:41.613Z,100557.49
2019-05-21T08:17:13.168Z,100558.56
2019-05-21T08:19:44.213Z,100554.19
2019-05-21T08:22:15.668Z,100553.13
2019-05-21T08:24:46.924Z,100558.48
2019-05-21T08:27:18.072Z,100564.66
2019-05-21T08:29:49.624Z,100559.42
2019-05-21T08:32:20.871Z,100558.08
2019-05-21T08:34:52.220Z,100540.62
2019-05-21T08:37:23.365Z,100550.95
2019-05-21T08:39:54.301Z,100546.52
2019-05-21T08:42:25.996Z,100545.55
2019-05-21T08:44:57.315Z,100533.62
2019-05-21T08:47:28.991Z,100541.51
2019-05-21T08:50:00.324Z,100543.90
2019-05-21T08:52:32.024Z,100528.78
2019-05-21T08:55:05.188Z,100526.70
2019-05-21T08:57:36.430Z,100527.17
2019-05-21T09:00:09.156Z,100526.78
2019-05-21T09:02:40.468Z,100530.77
2019-05-21T09:05:11.841Z,100535.19
2019-05-21T09:07:43.062Z,100525.73
2019-05-21T09:10:14.617Z,100528.91
2019-05-21T09:12:45.758Z,100530.27
2019-05-21T09:15:17.113Z,100531.79
2019-05-21T09:17:48.568Z,100526.04
2019-05-21T09:20:19.923Z,100523.67
2019-05-21T09:22:51.067Z,100524.67
2019-05-21T09:25:22.423Z,100523.67
2019-05-21T09:27:55.106Z,100519.86
2019-05-21T09:30:27.999Z,100517.33
2019-05-21T09:32:59.589Z,100524.43
2019-05-21T09:35:30.693Z,100525.94
2019-05-21T09:38:02.314Z,100527.14
2019-05-21T09:40:33.395Z,100520.80
2019-05-21T09:43:04.547Z,100507.50
2019-05-21T09:45:35.995Z,100510.23
2019-05-21T09:48:07.250Z,100508.48
2019-05-21T09:50:38.501Z,100511.26
2019-05-21T09:53:10.266Z,100510.73
2019-05-21T09:59:50.859Z,100517.33
2019-05-21T10:02:33.370Z,100511.48
2019-05-21T10:05:06.288Z,100514.94
2019-05-21T10:07:40.567Z,100515.16
2019-05-21T10:10:11.430Z,100516.58
2019-05-21T10:12:43.173Z,100518.53
2019-05-21T10:15:14.222Z,100517.27
2019-05-21T10:17:45.580Z,100514.61
2019-05-21T10:20:17.243Z,100508.29
2019-05-21T10:22:48.487Z,100505.23
2019-05-21T10:25:19.731Z,100504.12
2019-05-21T10:27:51.079Z,100494.60
2019-05-21T10:30:22.541Z,100495.72
2019-05-21T10:32:54.153Z,100495.02
2019-05-21T10:35:25.745Z,100499.03
2019-05-21T10:37:57.101Z,100495.84
2019-05-21T10:40:28.664Z,100490.14
2019-05-21T10:43:00.317Z,100501.80
2019-05-21T10:45:31.564Z,100492.79
2019-05-21T10:48:03.131Z,100492.88
2019-05-21T10:50:34.368Z,100486.89
2019-05-21T10:53:05.515Z,100492.97
2019-05-21T10:55:36.562Z,100498.14
2019-05-21T10:58:08.221Z,100494.60
2019-05-21T11:00:39.567Z,100492.95
2019-05-21T11:03:12.281Z,100493.02
2019-05-21T11:05:45.235Z,100489.45
2019-05-21T11:08:25.105Z,100490.24
2019-05-21T11:10:49.780Z,100490.64
2019-05-21T11:13:22.732Z,100489.20
2019-05-21T11:15:54.739Z,100487.16
2019-05-21T11:18:26.086Z,100481.23
2019-05-21T11:20:57.433Z,100475.44
2019-05-21T11:23:28.691Z,100474.18
2019-05-21T11:25:59.949Z,100469.47
2019-05-21T11:28:31.293Z,100470.69
2019-05-21T11:31:02.993Z,100472.45
2019-05-21T11:33:34.297Z,100463.81
2019-05-21T11:36:05.757Z,100456.67
2019-05-21T11:38:39.981Z,100460.31
2019-05-21T11:41:10.299Z,100460.94
2019-05-21T11:43:41.766Z,100452.73
2019-05-21T11:46:13.299Z,100455.76
2019-05-21T11:48:44.855Z,100435.89
2019-05-21T11:51:16.486Z,100439.63
2019-05-21T11:53:47.853Z,100439.00
2019-05-21T11:56:19.407Z,100442.45
2019-05-21T11:58:50.963Z,100438.31
2019-05-21T12:01:22.098Z,100436.29
2019-05-21T12:03:53.345Z,100422.80
2019-05-21T12:06:24.603Z,100421.84
2019-05-21T12:08:57.319Z,100418.95
2019-05-21T12:11:28.733Z,100416.37
2019-05-21T12:14:00.499Z,100417.16
2019-05-21T12:16:31.957Z,100401.17
2019-05-21T12:19:03.186Z,100404.23
2019-05-21T12:21:34.436Z,100414.33
2019-05-21T12:24:06.164Z,100416.42
2019-05-21T12:26:37.741Z,100413.39
2019-05-21T12:29:09.001Z,100405.84
2019-05-21T12:31:40.667Z,100420.22
2019-05-21T12:34:12.105Z,100408.63
2019-05-21T12:36:43.760Z,100398.77
2019-05-21T12:39:15.219Z,100394.91
2019-05-21T12:41:46.779Z,100407.72
2019-05-21T12:44:18.629Z,100393.89
2019-05-21T12:46:50.179Z,100395.27
2019-05-21T12:49:22.057Z,100388.78
2019-05-21T12:51:53.086Z,100387.22
2019-05-21T12:54:24.336Z,100395.34
2019-05-21T12:56:55.891Z,100385.34
2019-05-21T12:59:27.145Z,100378.23
2019-05-21T13:01:58.796Z,100379.41
2019-05-21T13:04:30.249Z,100358.17
2019-05-21T13:07:01.407Z,100354.72
2019-05-21T13:09:33.458Z,100366.52
2019-05-21T13:12:04.668Z,100370.43
2019-05-21T13:14:36.797Z,100361.12
2019-05-21T13:17:08.549Z,100363.95
2019-05-21T13:19:39.893Z,100355.56
2019-05-21T13:22:11.546Z,100360.45
2019-05-21T13:24:42.588Z,100347.03
2019-05-21T13:27:13.984Z,100355.55
2019-05-21T13:29:45.301Z,100345.28
2019-05-21T13:32:16.645Z,100352.70
2019-05-21T13:34:48.363Z,100340.47
2019-05-21T13:37:19.675Z,100345.16
2019-05-21T13:39:51.431Z,100341.17
2019-05-21T13:42:22.649Z,100347.53
2019-05-21T13:44:53.952Z,100340.72
2019-05-21T13:47:25.557Z,100348.97
2019-05-21T13:49:57.005Z,100343.31
2019-05-21T13:52:28.661Z,100332.44
2019-05-21T13:55:01.206Z,100338.45
2019-05-21T13:57:33.004Z,100324.13
2019-05-21T14:00:10.322Z,100338.52
2019-05-21T14:02:41.735Z,100336.99
2019-05-21T14:05:13.214Z,100334.02
2019-05-21T14:07:44.739Z,100340.30
2019-05-21T14:10:20.689Z,100332.36
2019-05-21T14:12:51.158Z,100318.19
2019-05-21T14:15:24.057Z,100320.06
2019-05-21T14:17:57.809Z,100314.56
2019-05-21T14:20:29.632Z,100325.45
2019-05-21T14:23:01.534Z,100314.55
2019-05-21T14:25:33.181Z,100317.88
2019-05-21T14:28:04.701Z,100300.38
2019-05-21T14:30:36.454Z,100312.98
2019-05-21T14:33:07.839Z,100306.77
2019-05-21T14:35:39.144Z,100306.34
2019-05-21T14:38:10.638Z,100289.70
2019-05-21T14:40:42.023Z,100299.66
2019-05-21T14:43:13.434Z,100300.12
2019-05-21T14:45:45.289Z,100296.86
2019-05-21T14:48:20.476Z,100286.33
2019-05-21T14:50:52.806Z,100294.20
2019-05-21T14:53:24.051Z,100285.91
2019-05-21T14:55:55.393Z,100292.70
2019-05-21T14:58:29.146Z,100297.47
2019-05-21T15:01:00.957Z,100285.46
2019-05-21T15:03:33.250Z,100288.94
2019-05-21T15:06:04.498Z,100286.57
2019-05-21T15:08:36.134Z,100294.34
2019-05-21T15:11:07.686Z,100285.45
2019-05-21T15:13:39.044Z,100293.79
2019-05-21T15:16:10.581Z,100281.16
2019-05-21T15:18:41.939Z,100289.09
2019-05-21T15:21:15.016Z,100290.31
2019-05-21T15:23:47.927Z,100284.84
2019-05-21T15:26:19.461Z,100283.00
2019-05-21T15:28:51.131Z,100283.17
2019-05-21T15:31:23.633Z,100279.89
2019-05-21T15:33:54.833Z,100288.98
2019-05-21T15:36:26.599Z,100279.75
2019-05-21T15:38:57.990Z,100285.34
2019-05-21T15:41:29.901Z,100289.62
2019-05-21T15:44:01.459Z,100283.27
2019-05-21T15:46:47.084Z,100286.16
2019-05-21T15:49:05.946Z,100279.16
2019-05-21T15:51:37.254Z,100285.45
2019-05-21T15:54:08.589Z,100288.97
2019-05-21T15:56:39.742Z,100288.37
2019-05-21T15:59:10.868Z,100282.35
2019-05-21T16:01:42.318Z,100289.77
2019-05-21T16:04:16.397Z,100285.00
2019-05-21T16:06:46.553Z,100280.34
2019-05-21T16:09:18.309Z,100285.83
2019-05-21T16:11:49.667Z,100287.17
2019-05-21T16:14:21.516Z,100285.93
2019-05-21T16:16:53.069Z,100287.80
2019-05-21T16:19:24.218Z,100292.58
2019-05-21T16:21:55.762Z,100285.48
2019-05-21T16:24:27.627Z,100287.67
2019-05-21T16:26:59.184Z,100291.58
2019-05-21T16:29:30.540Z,100287.45
2019-05-21T16:32:02.093Z,100279.77
2019-05-21T16:34:33.837Z,100293.02
2019-05-21T16:37:05.096Z,100283.97
2019-05-21T16:39:36.736Z,100290.99
2019-05-21T16:42:07.882Z,100284.61
2019-05-21T16:44:39.555Z,100295.73
2019-05-21T16:47:10.781Z,100290.60
2019-05-21T16:49:42.438Z,100286.05
2019-05-21T16:52:14.096Z,100281.59
2019-05-21T16:54:45.984Z,100283.00
2019-05-21T16:57:17.213Z,100287.22
2019-05-21T16:59:48.665Z,100281.80
2019-05-21T17:02:19.931Z,100289.73
2019-05-21T17:04:51.457Z,100295.38
2019-05-21T17:07:23.017Z,100293.15
2019-05-21T17:09:54.442Z,100292.75
2019-05-21T17:12:26.225Z,100294.88
2019-05-21T17:14:58.920Z,100291.87
2019-05-21T17:17:30.253Z,100293.64
2019-05-21T17:20:02.725Z,100297.78
2019-05-21T17:22:34.183Z,100291.20
2019-05-21T17:25:07.067Z,100298.81
2019-05-21T17:27:38.420Z,100290.14
2019-05-21T17:30:10.078Z,100291.68
2019-05-21T17:32:41.413Z,100293.73
2019-05-21T17:35:12.869Z,100299.70
2019-05-21T17:37:45.558Z,100294.70
2019-05-21T17:40:17.436Z,100294.78
2019-05-21T17:42:49.159Z,100298.47
2019-05-21T17:45:20.993Z,100295.59
2019-05-21T17:47:52.110Z,100294.48
2019-05-21T17:50:23.517Z,100297.36
2019-05-21T17:52:55.171Z,100301.92
2019-05-21T17:55:26.624Z,100299.30
2019-05-21T17:57:58.269Z,100298.40
2019-05-21T18:00:40.593Z,100302.42
2019-05-21T18:03:12.994Z,100306.80
2019-05-21T18:05:45.538Z,100308.91
2019-05-21T18:08:17.349Z,100302.59
2019-05-21T18:10:50.872Z,100306.67
2019-05-21T18:13:23.165Z,100314.64
2019-05-21T18:15:55.532Z,100315.12
2019-05-21T18:18:27.807Z,100311.87
2019-05-21T18:20:59.056Z,100315.23
2019-05-21T18:23:30.413Z,100312.74
2019-05-21T18:26:02.575Z,100313.03
2019-05-21T18:28:33.814Z,100312.22
2019-05-21T18:31:06.536Z,100310.42
2019-05-21T18:33:41.122Z,100310.36
2019-05-21T18:36:12.408Z,100311.69
2019-05-21T18:38:43.823Z,100310.00
2019-05-21T18:41:15.173Z,100310.45
2019-05-21T18:43:50.115Z,100304.89
2019-05-21T18:46:20.647Z,100311.40
2019-05-21T18:48:52.298Z,100320.63
2019-05-21T18:51:23.755Z,100321.52
2019-05-21T18:53:55.923Z,100321.72
2019-05-21T18:56:27.465Z,100318.98
2019-05-21T18:58:58.814Z,100313.52
2019-05-21T19:01:30.363Z,100317.01
2019-05-21T19:04:02.025Z,100310.27
2019-05-21T19:06:33.310Z,100310.98
2019-05-21T19:09:06.435Z,100309.64
2019-05-21T19:11:38.117Z,100311.07
2019-05-21T19:14:09.332Z,100310.16
2019-05-21T19:16:42.198Z,100307.59
2019-05-21T19:19:13.492Z,100302.44
2019-05-21T19:21:45.046Z,100301.92
2019-05-21T19:24:16.716Z,100296.94
2019-05-21T19:26:48.264Z,100300.42
2019-05-21T19:29:23.443Z,100306.20
2019-05-21T19:31:55.279Z,100307.98
2019-05-21T19:34:26.847Z,100296.89
2019-05-21T19:36:58.697Z,100309.88
2019-05-21T19:39:33.030Z,100300.18
2019-05-21T19:42:04.619Z,100291.67
2019-05-21T19:44:37.551Z,100291.74
2019-05-21T19:47:09.500Z,100300.09
2019-05-21T19:49:40.978Z,100294.75
2019-05-21T19:52:12.731Z,100292.53
2019-05-21T19:54:44.478Z,100296.09
2019-05-21T19:57:16.571Z,100299.09
2019-05-21T19:59:48.250Z,100293.19
2019-05-21T20:02:20.625Z,100293.19
2019-05-21T20:04:51.935Z,100291.87
2019-05-21T20:07:24.712Z,100293.27
2019-05-21T20:09:56.159Z,100294.65
2019-05-21T20:12:27.853Z,100287.24
2019-05-21T20:14:59.577Z,100290.02
2019-05-21T20:17:31.162Z,100286.57
2019-05-21T20:20:02.360Z,100281.06
2019-05-21T20:22:34.132Z,100280.55
2019-05-21T20:25:08.175Z,100282.45
2019-05-21T20:27:40.033Z,100277.27
2019-05-21T20:30:13.603Z,100278.65
2019-05-21T20:32:46.716Z,100278.17
2019-05-21T20:35:18.770Z,100281.09
2019-05-21T20:37:51.429Z,100288.56
2019-05-21T20:40:23.633Z,100286.83
2019-05-21T20:42:55.494Z,100281.84
2019-05-21T20:45:27.456Z,100275.43
2019-05-21T20:47:58.910Z,100276.62
2019-05-21T20:50:30.469Z,100280.66
2019-05-21T20:53:02.174Z,100285.13
2019-05-21T20:55:34.172Z,100291.20
2019-05-21T20:58:05.816Z,100284.86
2019-05-21T21:00:43.769Z,100288.34
2019-05-21T21:03:15.586Z,100286.89
2019-05-21T21:05:47.145Z,100289.66
2019-05-21T21:08:19.738Z,100280.85
2019-05-21T21:10:51.115Z,100282.84
2019-05-21T21:13:22.844Z,100268.42
2019-05-21T21:15:55.105Z,100272.18
2019-05-21T21:18:26.596Z,100265.97
2019-05-21T21:20:58.212Z,100270.32
2019-05-21T21:23:31.436Z,100272.58
2019-05-21T21:26:04.088Z,100264.45
2019-05-21T21:28:35.319Z,100256.19
2019-05-21T21:31:07.376Z,100258.24
2019-05-21T21:33:39.018Z,100264.11
2019-05-21T21:36:10.946Z,100261.69
2019-05-21T21:38:42.744Z,100262.88
2019-05-21T21:41:14.639Z,100260.22
2019-05-21T21:43:46.184Z,100253.84
2019-05-21T21:46:18.755Z,100250.32
2019-05-21T21:48:50.824Z,100249.80
2019-05-21T21:51:22.046Z,100249.28
2019-05-21T21:53:53.619Z,100245.08
2019-05-21T21:56:24.873Z,100244.88
2019-05-21T21:58:56.219Z,100234.00
2019-05-21T22:01:35.388Z,100234.63
2019-05-21T22:04:07.516Z,100228.77
2019-05-21T22:06:39.480Z,100234.00
2019-05-21T22:09:12.234Z,100229.48
2019-05-21T22:11:44.129Z,100218.91
2019-05-21T22:14:16.088Z,100214.64
2019-05-21T22:16:51.020Z,100201.34
2019-05-21T22:19:20.741Z,100205.02
2019-05-21T22:21:52.298Z,100208.00
2019-05-21T22:24:24.278Z,100202.65
2019-05-21T22:26:55.544Z,100200.28
2019-05-21T22:29:27.281Z,100200.33
2019-05-21T22:31:58.839Z,100192.77
2019-05-21T22:34:30.633Z,100190.72
2019-05-21T22:37:02.248Z,100189.61
2019-05-21T22:39:34.116Z,100190.16
2019-05-21T22:42:06.281Z,100185.34
2019-05-21T22:44:38.248Z,100184.15
2019-05-21T22:47:09.597Z,100178.30
2019-05-21T22:49:40.743Z,100173.27
2019-05-21T22:52:12.345Z,100169.98
2019-05-21T22:54:43.645Z,100173.27
2019-05-21T22:57:14.793Z,100170.30
2019-05-21T22:59:46.765Z,100173.27
2019-05-21T23:02:19.949Z,100170.34
2019-05-21T23:04:52.098Z,100173.46
2019-05-21T23:07:23.676Z,100180.91
2019-05-21T23:09:55.540Z,100180.59
2019-05-21T23:12:27.507Z,100178.86
2019-05-21T23:14:59.464Z,100184.13
2019-05-21T23:17:32.356Z,100177.23
2019-05-21T23:20:14.467Z,100179.02
2019-05-21T23:22:49.211Z,100179.21
2019-05-21T23:25:22.526Z,100185.62
2019-05-21T23:27:54.045Z,100179.64
2019-05-21T23:30:26.521Z,100173.20
2019-05-21T23:32:57.872Z,100170.94
2019-05-21T23:35:29.114Z,100174.42
2019-05-21T23:38:01.486Z,100170.47
2019-05-21T23:40:34.796Z,100168.77
2019-05-21T23:43:07.777Z,100172.91
2019-05-21T23:45:39.229Z,100163.94
2019-05-21T23:48:12.222Z,100164.61
2019-05-21T23:50:44.091Z,100163.58
2019-05-21T23:53:15.427Z,100161.36
2019-05-21T23:55:47.391Z,100157.41
2019-05-21T23:58:18.967Z,100152.23
